sensor_id;sensor_type;location;lat;lon;timestamp;P1;durP1;ratioP1;P2;durP2;ratioP2
22490;SDS011;11412;50.802;4.350;2023-07-24T00:01:09;5.70;;;4.85;;
22490;SDS011;11412;50.802;4.350;2023-07-24T00:03:34;7.57;;;5.40;;
22490;SDS011;11412;50.802;4.350;2023-07-24T00:06:01;9.77;;;4.95;;
22490;SDS011;11412;50.802;4.350;2023-07-24T00:08:27;7.40;;;4.80;;
22490;SDS011;11412;50.802;4.350;2023-07-24T00:10:53;10.52;;;5.50;;
22490;SDS011;11412;50.802;4.350;2023-07-24T00:13:19;9.68;;;5.00;;
22490;SDS011;11412;50.802;4.350;2023-07-24T00:15:44;7.82;;;4.88;;
22490;SDS011;11412;50.802;4.350;2023-07-24T00:18:10;7.53;;;4.88;;
22490;SDS011;11412;50.802;4.350;2023-07-24T00:20:35;6.45;;;4.47;;
22490;SDS011;11412;50.802;4.350;2023-07-24T00:23:01;6.68;;;5.70;;
22490;SDS011;11412;50.802;4.350;2023-07-24T00:25:27;8.52;;;5.10;;
22490;SDS011;11412;50.802;4.350;2023-07-24T00:27:52;10.02;;;4.75;;
22490;SDS011;11412;50.802;4.350;2023-07-24T00:30:18;8.10;;;4.97;;
22490;SDS011;11412;50.802;4.350;2023-07-24T00:32:43;7.57;;;5.10;;
22490;SDS011;11412;50.802;4.350;2023-07-24T00:35:09;6.88;;;4.53;;
22490;SDS011;11412;50.802;4.350;2023-07-24T00:37:35;8.25;;;5.15;;
22490;SDS011;11412;50.802;4.350;2023-07-24T00:40:01;5.95;;;4.75;;
22490;SDS011;11412;50.802;4.350;2023-07-24T00:42:27;7.35;;;5.00;;
22490;SDS011;11412;50.802;4.350;2023-07-24T00:44:53;7.03;;;4.60;;
22490;SDS011;11412;50.802;4.350;2023-07-24T00:47:19;6.15;;;5.05;;
22490;SDS011;11412;50.802;4.350;2023-07-24T00:52:16;8.15;;;4.30;;
22490;SDS011;11412;50.802;4.350;2023-07-24T00:54:42;7.47;;;4.90;;
22490;SDS011;11412;50.802;4.350;2023-07-24T00:57:10;6.95;;;5.05;;
22490;SDS011;11412;50.802;4.350;2023-07-24T00:59:35;8.15;;;4.95;;
22490;SDS011;11412;50.802;4.350;2023-07-24T01:02:01;10.48;;;5.32;;
22490;SDS011;11412;50.802;4.350;2023-07-24T01:04:27;5.68;;;4.90;;
22490;SDS011;11412;50.802;4.350;2023-07-24T01:06:52;7.25;;;5.35;;
22490;SDS011;11412;50.802;4.350;2023-07-24T01:09:18;7.57;;;4.93;;
22490;SDS011;11412;50.802;4.350;2023-07-24T01:11:50;7.28;;;5.07;;
22490;SDS011;11412;50.802;4.350;2023-07-24T01:14:34;6.40;;;4.93;;
22490;SDS011;11412;50.802;4.350;2023-07-24T01:17:06;11.65;;;5.70;;
22490;SDS011;11412;50.802;4.350;2023-07-24T01:19:37;8.35;;;5.18;;
22490;SDS011;11412;50.802;4.350;2023-07-24T01:22:12;7.80;;;4.70;;
22490;SDS011;11412;50.802;4.350;2023-07-24T01:25:12;7.68;;;5.53;;
22490;SDS011;11412;50.802;4.350;2023-07-24T01:27:56;6.15;;;4.95;;
22490;SDS011;11412;50.802;4.350;2023-07-24T01:30:22;6.15;;;5.38;;
22490;SDS011;11412;50.802;4.350;2023-07-24T01:32:48;7.32;;;5.15;;
22490;SDS011;11412;50.802;4.350;2023-07-24T01:35:14;8.40;;;5.38;;
22490;SDS011;11412;50.802;4.350;2023-07-24T01:37:40;8.43;;;4.68;;
22490;SDS011;11412;50.802;4.350;2023-07-24T01:40:08;9.98;;;5.25;;
22490;SDS011;11412;50.802;4.350;2023-07-24T01:42:35;7.57;;;5.45;;
22490;SDS011;11412;50.802;4.350;2023-07-24T01:45:02;7.40;;;4.70;;
22490;SDS011;11412;50.802;4.350;2023-07-24T01:47:29;6.03;;;4.60;;
22490;SDS011;11412;50.802;4.350;2023-07-24T01:49:55;7.35;;;5.07;;
22490;SDS011;11412;50.802;4.350;2023-07-24T01:52:21;4.30;;;3.88;;
22490;SDS011;11412;50.802;4.350;2023-07-24T01:54:47;5.85;;;4.50;;
22490;SDS011;11412;50.802;4.350;2023-07-24T01:57:13;6.22;;;3.70;;
22490;SDS011;11412;50.802;4.350;2023-07-24T01:59:38;4.70;;;3.85;;
22490;SDS011;11412;50.802;4.350;2023-07-24T02:02:04;4.47;;;4.00;;
22490;SDS011;11412;50.802;4.350;2023-07-24T02:04:30;4.68;;;4.07;;
22490;SDS011;11412;50.802;4.350;2023-07-24T02:06:55;4.57;;;3.85;;
22490;SDS011;11412;50.802;4.350;2023-07-24T02:09:21;6.90;;;3.40;;
22490;SDS011;11412;50.802;4.350;2023-07-24T02:11:47;4.55;;;3.83;;
22490;SDS011;11412;50.802;4.350;2023-07-24T02:14:13;7.45;;;4.22;;
22490;SDS011;11412;50.802;4.350;2023-07-24T02:16:41;5.90;;;3.78;;
22490;SDS011;11412;50.802;4.350;2023-07-24T02:19:07;4.20;;;3.80;;
22490;SDS011;11412;50.802;4.350;2023-07-24T02:21:32;4.13;;;3.42;;
22490;SDS011;11412;50.802;4.350;2023-07-24T02:23:58;6.93;;;3.70;;
22490;SDS011;11412;50.802;4.350;2023-07-24T02:26:24;4.43;;;4.00;;
22490;SDS011;11412;50.802;4.350;2023-07-24T02:28:49;3.35;;;3.00;;
22490;SDS011;11412;50.802;4.350;2023-07-24T02:31:15;3.40;;;3.10;;
22490;SDS011;11412;50.802;4.350;2023-07-24T02:33:41;3.78;;;3.35;;
22490;SDS011;11412;50.802;4.350;2023-07-24T02:36:07;3.83;;;3.53;;
22490;SDS011;11412;50.802;4.350;2023-07-24T02:38:33;3.53;;;3.22;;
22490;SDS011;11412;50.802;4.350;2023-07-24T02:40:59;3.40;;;3.10;;
22490;SDS011;11412;50.802;4.350;2023-07-24T02:43:24;4.50;;;3.45;;
22490;SDS011;11412;50.802;4.350;2023-07-24T02:45:50;5.18;;;3.70;;
22490;SDS011;11412;50.802;4.350;2023-07-24T02:48:16;4.22;;;3.28;;
22490;SDS011;11412;50.802;4.350;2023-07-24T02:50:41;3.10;;;2.90;;
22490;SDS011;11412;50.802;4.350;2023-07-24T02:53:07;5.75;;;3.00;;
22490;SDS011;11412;50.802;4.350;2023-07-24T02:55:33;3.47;;;2.88;;
22490;SDS011;11412;50.802;4.350;2023-07-24T02:57:58;3.88;;;2.53;;
22490;SDS011;11412;50.802;4.350;2023-07-24T03:00:24;2.20;;;2.10;;
22490;SDS011;11412;50.802;4.350;2023-07-24T03:02:50;3.55;;;2.38;;
22490;SDS011;11412;50.802;4.350;2023-07-24T03:05:16;3.45;;;2.22;;
22490;SDS011;11412;50.802;4.350;2023-07-24T03:07:42;2.88;;;2.53;;
22490;SDS011;11412;50.802;4.350;2023-07-24T03:10:07;4.85;;;2.55;;
22490;SDS011;11412;50.802;4.350;2023-07-24T03:12:33;3.05;;;2.60;;
22490;SDS011;11412;50.802;4.350;2023-07-24T03:14:59;5.53;;;3.00;;
22490;SDS011;11412;50.802;4.350;2023-07-24T03:17:24;4.15;;;3.00;;
22490;SDS011;11412;50.802;4.350;2023-07-24T03:19:50;2.65;;;2.47;;
22490;SDS011;11412;50.802;4.350;2023-07-24T03:22:16;2.25;;;1.83;;
22490;SDS011;11412;50.802;4.350;2023-07-24T03:24:41;1.83;;;1.80;;
22490;SDS011;11412;50.802;4.350;2023-07-24T03:27:07;2.10;;;2.00;;
22490;SDS011;11412;50.802;4.350;2023-07-24T03:29:32;1.88;;;1.77;;
22490;SDS011;11412;50.802;4.350;2023-07-24T03:31:58;2.42;;;1.77;;
22490;SDS011;11412;50.802;4.350;2023-07-24T03:34:24;2.92;;;1.77;;
22490;SDS011;11412;50.802;4.350;2023-07-24T03:36:50;1.67;;;1.58;;
22490;SDS011;11412;50.802;4.350;2023-07-24T03:39:15;2.47;;;1.55;;
22490;SDS011;11412;50.802;4.350;2023-07-24T03:41:41;1.98;;;1.65;;
22490;SDS011;11412;50.802;4.350;2023-07-24T03:44:07;1.75;;;1.65;;
22490;SDS011;11412;50.802;4.350;2023-07-24T03:46:33;1.75;;;1.65;;
22490;SDS011;11412;50.802;4.350;2023-07-24T03:49:00;1.65;;;1.52;;
22490;SDS011;11412;50.802;4.350;2023-07-24T03:51:26;1.30;;;1.30;;
22490;SDS011;11412;50.802;4.350;2023-07-24T03:53:51;1.50;;;1.50;;
22490;SDS011;11412;50.802;4.350;2023-07-24T03:56:17;3.33;;;1.88;;
22490;SDS011;11412;50.802;4.350;2023-07-24T03:58:43;2.10;;;1.60;;
22490;SDS011;11412;50.802;4.350;2023-07-24T04:01:08;1.60;;;1.60;;
22490;SDS011;11412;50.802;4.350;2023-07-24T04:03:35;1.73;;;1.50;;
22490;SDS011;11412;50.802;4.350;2023-07-24T04:06:00;2.08;;;1.40;;
22490;SDS011;11412;50.802;4.350;2023-07-24T04:08:26;2.58;;;1.35;;
22490;SDS011;11412;50.802;4.350;2023-07-24T04:10:52;1.50;;;1.40;;
22490;SDS011;11412;50.802;4.350;2023-07-24T04:13:18;1.45;;;1.38;;
22490;SDS011;11412;50.802;4.350;2023-07-24T04:15:43;1.50;;;1.50;;
22490;SDS011;11412;50.802;4.350;2023-07-24T04:18:09;1.30;;;1.20;;
22490;SDS011;11412;50.802;4.350;2023-07-24T04:20:35;1.30;;;1.30;;
22490;SDS011;11412;50.802;4.350;2023-07-24T04:23:01;1.48;;;1.48;;
22490;SDS011;11412;50.802;4.350;2023-07-24T04:25:27;1.60;;;1.50;;
22490;SDS011;11412;50.802;4.350;2023-07-24T04:27:53;1.55;;;1.55;;
22490;SDS011;11412;50.802;4.350;2023-07-24T04:30:18;1.80;;;1.70;;
22490;SDS011;11412;50.802;4.350;2023-07-24T04:32:44;1.52;;;1.42;;
22490;SDS011;11412;50.802;4.350;2023-07-24T04:35:11;2.50;;;1.70;;
22490;SDS011;11412;50.802;4.350;2023-07-24T04:37:37;2.60;;;1.75;;
22490;SDS011;11412;50.802;4.350;2023-07-24T04:40:03;2.83;;;1.73;;
22490;SDS011;11412;50.802;4.350;2023-07-24T04:42:29;1.80;;;1.70;;
22490;SDS011;11412;50.802;4.350;2023-07-24T04:44:55;2.65;;;1.73;;
22490;SDS011;11412;50.802;4.350;2023-07-24T04:47:21;1.67;;;1.58;;
22490;SDS011;11412;50.802;4.350;2023-07-24T04:49:46;1.80;;;1.70;;
22490;SDS011;11412;50.802;4.350;2023-07-24T04:52:12;2.33;;;1.35;;
22490;SDS011;11412;50.802;4.350;2023-07-24T04:54:38;1.60;;;1.50;;
22490;SDS011;11412;50.802;4.350;2023-07-24T04:57:03;1.63;;;1.63;;
22490;SDS011;11412;50.802;4.350;2023-07-24T04:59:29;1.65;;;1.60;;
22490;SDS011;11412;50.802;4.350;2023-07-24T05:01:55;1.73;;;1.63;;
22490;SDS011;11412;50.802;4.350;2023-07-24T05:04:21;2.40;;;1.90;;
22490;SDS011;11412;50.802;4.350;2023-07-24T05:06:46;2.78;;;1.55;;
22490;SDS011;11412;50.802;4.350;2023-07-24T05:09:12;1.77;;;1.65;;
22490;SDS011;11412;50.802;4.350;2023-07-24T05:11:38;1.80;;;1.45;;
22490;SDS011;11412;50.802;4.350;2023-07-24T05:14:03;2.30;;;2.10;;
22490;SDS011;11412;50.802;4.350;2023-07-24T05:16:29;2.20;;;1.90;;
22490;SDS011;11412;50.802;4.350;2023-07-24T05:18:56;1.70;;;1.60;;
22490;SDS011;11412;50.802;4.350;2023-07-24T05:21:21;1.85;;;1.63;;
22490;SDS011;11412;50.802;4.350;2023-07-24T05:23:47;3.15;;;2.08;;
22490;SDS011;11412;50.802;4.350;2023-07-24T05:26:13;2.85;;;1.80;;
22490;SDS011;11412;50.802;4.350;2023-07-24T05:28:38;1.85;;;1.75;;
22490;SDS011;11412;50.802;4.350;2023-07-24T05:31:04;1.90;;;1.75;;
22490;SDS011;11412;50.802;4.350;2023-07-24T05:33:31;2.22;;;1.75;;
22490;SDS011;11412;50.802;4.350;2023-07-24T05:35:58;1.75;;;1.65;;
22490;SDS011;11412;50.802;4.350;2023-07-24T05:38:27;1.95;;;1.85;;
22490;SDS011;11412;50.802;4.350;2023-07-24T05:40:57;2.00;;;1.90;;
22490;SDS011;11412;50.802;4.350;2023-07-24T05:43:27;2.00;;;1.77;;
22490;SDS011;11412;50.802;4.350;2023-07-24T05:45:54;2.45;;;1.88;;
22490;SDS011;11412;50.802;4.350;2023-07-24T05:48:21;1.98;;;1.88;;
22490;SDS011;11412;50.802;4.350;2023-07-24T05:50:47;1.73;;;1.63;;
22490;SDS011;11412;50.802;4.350;2023-07-24T05:53:13;2.53;;;2.03;;
22490;SDS011;11412;50.802;4.350;2023-07-24T05:55:40;1.95;;;1.85;;
22490;SDS011;11412;50.802;4.350;2023-07-24T05:58:05;2.38;;;2.28;;
22490;SDS011;11412;50.802;4.350;2023-07-24T06:00:31;3.08;;;2.28;;
22490;SDS011;11412;50.802;4.350;2023-07-24T06:02:57;2.30;;;2.05;;
22490;SDS011;11412;50.802;4.350;2023-07-24T06:05:23;2.05;;;1.95;;
22490;SDS011;11412;50.802;4.350;2023-07-24T06:07:48;2.13;;;2.03;;
22490;SDS011;11412;50.802;4.350;2023-07-24T06:10:14;2.28;;;2.17;;
22490;SDS011;11412;50.802;4.350;2023-07-24T06:12:39;2.45;;;2.15;;
22490;SDS011;11412;50.802;4.350;2023-07-24T06:15:05;4.07;;;2.50;;
22490;SDS011;11412;50.802;4.350;2023-07-24T06:17:32;2.60;;;2.40;;
22490;SDS011;11412;50.802;4.350;2023-07-24T06:19:57;3.03;;;2.72;;
22490;SDS011;11412;50.802;4.350;2023-07-24T06:22:23;2.35;;;2.15;;
22490;SDS011;11412;50.802;4.350;2023-07-24T06:24:49;2.33;;;2.22;;
22490;SDS011;11412;50.802;4.350;2023-07-24T06:27:15;2.58;;;2.38;;
22490;SDS011;11412;50.802;4.350;2023-07-24T06:29:41;3.95;;;2.33;;
22490;SDS011;11412;50.802;4.350;2023-07-24T06:32:07;2.45;;;2.25;;
22490;SDS011;11412;50.802;4.350;2023-07-24T06:34:33;2.75;;;2.63;;
22490;SDS011;11412;50.802;4.350;2023-07-24T06:36:59;2.50;;;2.28;;
22490;SDS011;11412;50.802;4.350;2023-07-24T06:39:25;5.93;;;2.55;;
22490;SDS011;11412;50.802;4.350;2023-07-24T06:41:51;2.80;;;2.60;;
22490;SDS011;11412;50.802;4.350;2023-07-24T06:44:18;2.40;;;2.30;;
22490;SDS011;11412;50.802;4.350;2023-07-24T06:46:43;4.53;;;2.40;;
22490;SDS011;11412;50.802;4.350;2023-07-24T06:49:09;4.22;;;2.78;;
22490;SDS011;11412;50.802;4.350;2023-07-24T06:51:36;2.10;;;2.00;;
22490;SDS011;11412;50.802;4.350;2023-07-24T06:54:03;3.50;;;2.30;;
22490;SDS011;11412;50.802;4.350;2023-07-24T06:56:29;2.10;;;2.00;;
22490;SDS011;11412;50.802;4.350;2023-07-24T06:58:55;2.70;;;2.50;;
22490;SDS011;11412;50.802;4.350;2023-07-24T07:01:20;3.25;;;2.17;;
22490;SDS011;11412;50.802;4.350;2023-07-24T07:03:46;6.50;;;2.33;;
22490;SDS011;11412;50.802;4.350;2023-07-24T07:06:11;2.78;;;2.03;;
22490;SDS011;11412;50.802;4.350;2023-07-24T07:08:37;2.20;;;2.00;;
22490;SDS011;11412;50.802;4.350;2023-07-24T07:11:03;2.40;;;2.13;;
22490;SDS011;11412;50.802;4.350;2023-07-24T07:13:29;2.00;;;1.90;;
22490;SDS011;11412;50.802;4.350;2023-07-24T07:15:54;3.10;;;2.50;;
22490;SDS011;11412;50.802;4.350;2023-07-24T07:18:20;3.40;;;1.77;;
22490;SDS011;11412;50.802;4.350;2023-07-24T07:20:46;2.63;;;2.30;;
22490;SDS011;11412;50.802;4.350;2023-07-24T07:23:12;3.08;;;1.95;;
22490;SDS011;11412;50.802;4.350;2023-07-24T07:25:38;2.50;;;2.30;;
22490;SDS011;11412;50.802;4.350;2023-07-24T07:28:03;2.90;;;2.40;;
22490;SDS011;11412;50.802;4.350;2023-07-24T07:30:29;5.57;;;2.50;;
22490;SDS011;11412;50.802;4.350;2023-07-24T07:32:55;3.17;;;2.15;;
22490;SDS011;11412;50.802;4.350;2023-07-24T07:35:20;2.15;;;1.98;;
22490;SDS011;11412;50.802;4.350;2023-07-24T07:37:46;5.82;;;2.03;;
22490;SDS011;11412;50.802;4.350;2023-07-24T07:40:11;2.80;;;2.03;;
22490;SDS011;11412;50.802;4.350;2023-07-24T07:42:37;3.13;;;2.20;;
22490;SDS011;11412;50.802;4.350;2023-07-24T07:45:03;4.18;;;2.83;;
22490;SDS011;11412;50.802;4.350;2023-07-24T07:47:29;2.38;;;2.08;;
22490;SDS011;11412;50.802;4.350;2023-07-24T07:49:55;2.88;;;2.08;;
22490;SDS011;11412;50.802;4.350;2023-07-24T07:52:20;2.90;;;2.05;;
22490;SDS011;11412;50.802;4.350;2023-07-24T07:54:47;3.38;;;2.47;;
22490;SDS011;11412;50.802;4.350;2023-07-24T07:57:13;2.97;;;1.90;;
22490;SDS011;11412;50.802;4.350;2023-07-24T07:59:39;2.25;;;2.05;;
22490;SDS011;11412;50.802;4.350;2023-07-24T08:02:05;4.25;;;2.03;;
22490;SDS011;11412;50.802;4.350;2023-07-24T08:04:31;2.13;;;1.80;;
22490;SDS011;11412;50.802;4.350;2023-07-24T08:06:57;2.08;;;1.90;;
22490;SDS011;11412;50.802;4.350;2023-07-24T08:09:23;3.35;;;2.00;;
22490;SDS011;11412;50.802;4.350;2023-07-24T08:11:49;3.80;;;1.98;;
22490;SDS011;11412;50.802;4.350;2023-07-24T08:14:16;2.42;;;2.03;;
22490;SDS011;11412;50.802;4.350;2023-07-24T08:16:42;2.00;;;1.90;;
22490;SDS011;11412;50.802;4.350;2023-07-24T08:19:08;3.95;;;1.92;;
22490;SDS011;11412;50.802;4.350;2023-07-24T08:21:34;2.35;;;2.13;;
22490;SDS011;11412;50.802;4.350;2023-07-24T08:24:00;3.28;;;1.75;;
22490;SDS011;11412;50.802;4.350;2023-07-24T08:26:27;2.33;;;2.17;;
22490;SDS011;11412;50.802;4.350;2023-07-24T08:28:53;3.00;;;1.92;;
22490;SDS011;11412;50.802;4.350;2023-07-24T08:31:18;2.30;;;2.20;;
22490;SDS011;11412;50.802;4.350;2023-07-24T08:33:44;3.35;;;2.10;;
22490;SDS011;11412;50.802;4.350;2023-07-24T08:36:10;2.05;;;1.95;;
22490;SDS011;11412;50.802;4.350;2023-07-24T08:38:37;2.00;;;1.90;;
22490;SDS011;11412;50.802;4.350;2023-07-24T08:41:21;4.18;;;2.47;;
22490;SDS011;11412;50.802;4.350;2023-07-24T08:43:47;3.72;;;2.83;;
22490;SDS011;11412;50.802;4.350;2023-07-24T08:46:14;3.95;;;2.78;;
22490;SDS011;11412;50.802;4.350;2023-07-24T08:48:41;3.25;;;2.60;;
22490;SDS011;11412;50.802;4.350;2023-07-24T08:51:11;4.32;;;3.13;;
22490;SDS011;11412;50.802;4.350;2023-07-24T08:53:38;4.82;;;2.58;;
22490;SDS011;11412;50.802;4.350;2023-07-24T08:56:06;3.03;;;2.83;;
22490;SDS011;11412;50.802;4.350;2023-07-24T08:58:34;3.95;;;2.78;;
22490;SDS011;11412;50.802;4.350;2023-07-24T09:01:01;3.25;;;2.95;;
22490;SDS011;11412;50.802;4.350;2023-07-24T09:03:28;3.28;;;2.97;;
22490;SDS011;11412;50.802;4.350;2023-07-24T09:05:53;4.13;;;3.13;;
22490;SDS011;11412;50.802;4.350;2023-07-24T09:08:31;2.55;;;2.35;;
22490;SDS011;11412;50.802;4.350;2023-07-24T09:10:58;2.95;;;2.72;;
22490;SDS011;11412;50.802;4.350;2023-07-24T09:13:25;3.03;;;2.60;;
22490;SDS011;11412;50.802;4.350;2023-07-24T09:15:51;2.88;;;2.67;;
22490;SDS011;11412;50.802;4.350;2023-07-24T09:18:17;3.47;;;2.70;;
22490;SDS011;11412;50.802;4.350;2023-07-24T09:20:44;3.47;;;2.67;;
22490;SDS011;11412;50.802;4.350;2023-07-24T09:23:10;3.58;;;3.22;;
22490;SDS011;11412;50.802;4.350;2023-07-24T09:25:38;2.67;;;2.47;;
22490;SDS011;11412;50.802;4.350;2023-07-24T09:28:15;4.68;;;2.83;;
22490;SDS011;11412;50.802;4.350;2023-07-24T09:30:42;2.65;;;2.45;;
22490;SDS011;11412;50.802;4.350;2023-07-24T09:33:21;4.43;;;2.67;;
22490;SDS011;11412;50.802;4.350;2023-07-24T09:36:00;3.63;;;3.28;;
22490;SDS011;11412;50.802;4.350;2023-07-24T09:38:27;3.50;;;3.10;;
22490;SDS011;11412;50.802;4.350;2023-07-24T09:40:53;3.33;;;3.13;;
22490;SDS011;11412;50.802;4.350;2023-07-24T09:43:21;3.30;;;3.00;;
22490;SDS011;11412;50.802;4.350;2023-07-24T09:45:49;4.82;;;3.38;;
22490;SDS011;11412;50.802;4.350;2023-07-24T09:48:15;5.40;;;3.75;;
22490;SDS011;11412;50.802;4.350;2023-07-24T09:50:43;3.30;;;3.10;;
22490;SDS011;11412;50.802;4.350;2023-07-24T09:56:04;4.57;;;3.47;;
22490;SDS011;11412;50.802;4.350;2023-07-24T09:58:32;3.40;;;3.10;;
22490;SDS011;11412;50.802;4.350;2023-07-24T10:01:09;3.33;;;3.03;;
22490;SDS011;11412;50.802;4.350;2023-07-24T10:03:38;3.88;;;3.00;;
22490;SDS011;11412;50.802;4.350;2023-07-24T10:06:05;3.47;;;3.17;;
22490;SDS011;11412;50.802;4.350;2023-07-24T10:08:35;2.78;;;2.63;;
22490;SDS011;11412;50.802;4.350;2023-07-24T10:11:01;3.08;;;2.88;;
22490;SDS011;11412;50.802;4.350;2023-07-24T10:13:27;4.57;;;2.80;;
22490;SDS011;11412;50.802;4.350;2023-07-24T10:15:54;3.63;;;3.00;;
22490;SDS011;11412;50.802;4.350;2023-07-24T10:18:25;2.85;;;2.65;;
22490;SDS011;11412;50.802;4.350;2023-07-24T10:21:00;3.22;;;3.03;;
22490;SDS011;11412;50.802;4.350;2023-07-24T10:23:37;3.35;;;2.42;;
22490;SDS011;11412;50.802;4.350;2023-07-24T10:26:11;4.60;;;2.80;;
22490;SDS011;11412;50.802;4.350;2023-07-24T10:28:38;2.22;;;2.13;;
22490;SDS011;11412;50.802;4.350;2023-07-24T10:31:18;2.80;;;2.58;;
22490;SDS011;11412;50.802;4.350;2023-07-24T10:33:46;2.60;;;2.40;;
22490;SDS011;11412;50.802;4.350;2023-07-24T10:36:12;3.08;;;2.80;;
22490;SDS011;11412;50.802;4.350;2023-07-24T10:38:44;3.30;;;2.55;;
22490;SDS011;11412;50.802;4.350;2023-07-24T10:41:10;4.05;;;2.60;;
22490;SDS011;11412;50.802;4.350;2023-07-24T10:43:40;2.45;;;2.25;;
22490;SDS011;11412;50.802;4.350;2023-07-24T10:46:06;3.97;;;2.83;;
22490;SDS011;11412;50.802;4.350;2023-07-24T10:48:32;4.53;;;2.90;;
22490;SDS011;11412;50.802;4.350;2023-07-24T10:50:57;2.83;;;2.60;;
22490;SDS011;11412;50.802;4.350;2023-07-24T10:53:23;2.67;;;2.47;;
22490;SDS011;11412;50.802;4.350;2023-07-24T10:55:49;2.97;;;2.70;;
22490;SDS011;11412;50.802;4.350;2023-07-24T10:58:16;2.75;;;2.55;;
22490;SDS011;11412;50.802;4.350;2023-07-24T11:00:42;2.35;;;2.22;;
22490;SDS011;11412;50.802;4.350;2023-07-24T11:03:12;2.80;;;2.60;;
22490;SDS011;11412;50.802;4.350;2023-07-24T11:05:42;2.40;;;2.20;;
22490;SDS011;11412;50.802;4.350;2023-07-24T11:08:19;3.13;;;2.70;;
22490;SDS011;11412;50.802;4.350;2023-07-24T11:13:11;3.78;;;2.90;;
22490;SDS011;11412;50.802;4.350;2023-07-24T11:15:37;2.88;;;2.65;;
22490;SDS011;11412;50.802;4.350;2023-07-24T11:18:03;3.35;;;2.88;;
22490;SDS011;11412;50.802;4.350;2023-07-24T11:20:33;3.90;;;2.70;;
22490;SDS011;11412;50.802;4.350;2023-07-24T11:23:02;2.92;;;2.72;;
22490;SDS011;11412;50.802;4.350;2023-07-24T11:25:28;2.83;;;2.50;;
22490;SDS011;11412;50.802;4.350;2023-07-24T11:27:54;3.05;;;2.85;;
22490;SDS011;11412;50.802;4.350;2023-07-24T11:30:20;3.35;;;2.65;;
22490;SDS011;11412;50.802;4.350;2023-07-24T11:32:46;3.90;;;3.03;;
22490;SDS011;11412;50.802;4.350;2023-07-24T11:35:13;3.42;;;3.13;;
22490;SDS011;11412;50.802;4.350;2023-07-24T11:37:40;3.53;;;3.33;;
22490;SDS011;11412;50.802;4.350;2023-07-24T11:40:06;3.90;;;3.60;;
22490;SDS011;11412;50.802;4.350;2023-07-24T11:42:53;4.28;;;2.90;;
22490;SDS011;11412;50.802;4.350;2023-07-24T11:45:19;3.53;;;2.95;;
22490;SDS011;11412;50.802;4.350;2023-07-24T11:47:45;3.40;;;3.10;;
22490;SDS011;11412;50.802;4.350;2023-07-24T11:50:12;5.40;;;3.17;;
22490;SDS011;11412;50.802;4.350;2023-07-24T11:52:39;3.80;;;3.47;;
22490;SDS011;11412;50.802;4.350;2023-07-24T11:55:13;4.93;;;3.35;;
22490;SDS011;11412;50.802;4.350;2023-07-24T11:57:40;3.10;;;2.70;;
22490;SDS011;11412;50.802;4.350;2023-07-24T12:00:16;3.22;;;3.00;;
22490;SDS011;11412;50.802;4.350;2023-07-24T12:02:46;5.55;;;2.90;;
22490;SDS011;11412;50.802;4.350;2023-07-24T12:05:12;4.15;;;3.17;;
22490;SDS011;11412;50.802;4.350;2023-07-24T12:07:38;3.25;;;3.05;;
22490;SDS011;11412;50.802;4.350;2023-07-24T12:10:04;4.25;;;2.67;;
22490;SDS011;11412;50.802;4.350;2023-07-24T12:15:11;2.95;;;2.22;;
22490;SDS011;11412;50.802;4.350;2023-07-24T12:17:38;2.83;;;2.63;;
22490;SDS011;11412;50.802;4.350;2023-07-24T12:20:05;3.00;;;2.78;;
22490;SDS011;11412;50.802;4.350;2023-07-24T12:22:33;3.00;;;2.70;;
22490;SDS011;11412;50.802;4.350;2023-07-24T12:24:59;3.35;;;3.10;;
22490;SDS011;11412;50.802;4.350;2023-07-24T12:27:26;3.00;;;2.70;;
22490;SDS011;11412;50.802;4.350;2023-07-24T12:29:52;3.28;;;3.00;;
22490;SDS011;11412;50.802;4.350;2023-07-24T12:32:17;3.80;;;2.78;;
22490;SDS011;11412;50.802;4.350;2023-07-24T12:34:44;3.00;;;2.80;;
22490;SDS011;11412;50.802;4.350;2023-07-24T12:37:11;2.75;;;2.55;;
22490;SDS011;11412;50.802;4.350;2023-07-24T12:39:37;3.10;;;2.80;;
22490;SDS011;11412;50.802;4.350;2023-07-24T12:42:03;4.95;;;3.20;;
22490;SDS011;11412;50.802;4.350;2023-07-24T12:44:29;3.13;;;2.92;;
22490;SDS011;11412;50.802;4.350;2023-07-24T12:46:55;4.82;;;2.83;;
22490;SDS011;11412;50.802;4.350;2023-07-24T12:49:21;3.58;;;3.28;;
22490;SDS011;11412;50.802;4.350;2023-07-24T12:51:46;5.72;;;2.78;;
22490;SDS011;11412;50.802;4.350;2023-07-24T12:54:12;4.25;;;3.00;;
22490;SDS011;11412;50.802;4.350;2023-07-24T12:56:37;3.00;;;2.70;;
22490;SDS011;11412;50.802;4.350;2023-07-24T12:59:03;3.00;;;2.80;;
22490;SDS011;11412;50.802;4.350;2023-07-24T13:01:29;3.85;;;2.97;;
22490;SDS011;11412;50.802;4.350;2023-07-24T13:03:55;4.35;;;2.75;;
22490;SDS011;11412;50.802;4.350;2023-07-24T13:06:21;3.33;;;3.03;;
22490;SDS011;11412;50.802;4.350;2023-07-24T13:08:47;2.97;;;2.78;;
22490;SDS011;11412;50.802;4.350;2023-07-24T13:11:14;4.15;;;3.08;;
22490;SDS011;11412;50.802;4.350;2023-07-24T13:13:39;4.78;;;2.97;;
22490;SDS011;11412;50.802;4.350;2023-07-24T13:16:05;8.30;;;3.00;;
22490;SDS011;11412;50.802;4.350;2023-07-24T13:18:31;5.10;;;3.00;;
22490;SDS011;11412;50.802;4.350;2023-07-24T13:20:56;4.00;;;3.00;;
22490;SDS011;11412;50.802;4.350;2023-07-24T13:23:22;4.28;;;3.13;;
22490;SDS011;11412;50.802;4.350;2023-07-24T13:25:48;5.55;;;3.30;;
22490;SDS011;11412;50.802;4.350;2023-07-24T13:28:15;4.32;;;3.20;;
22490;SDS011;11412;50.802;4.350;2023-07-24T13:30:41;3.40;;;3.15;;
22490;SDS011;11412;50.802;4.350;2023-07-24T13:33:07;3.88;;;3.58;;
22490;SDS011;11412;50.802;4.350;2023-07-24T13:35:32;3.35;;;3.10;;
22490;SDS011;11412;50.802;4.350;2023-07-24T13:37:58;3.85;;;3.22;;
22490;SDS011;11412;50.802;4.350;2023-07-24T13:40:24;3.60;;;3.15;;
22490;SDS011;11412;50.802;4.350;2023-07-24T13:42:49;4.25;;;3.30;;
22490;SDS011;11412;50.802;4.350;2023-07-24T13:45:15;2.85;;;2.65;;
22490;SDS011;11412;50.802;4.350;2023-07-24T13:47:40;2.47;;;2.28;;
22490;SDS011;11412;50.802;4.350;2023-07-24T13:50:06;3.85;;;2.70;;
22490;SDS011;11412;50.802;4.350;2023-07-24T13:52:32;3.60;;;2.53;;
22490;SDS011;11412;50.802;4.350;2023-07-24T13:54:58;4.25;;;2.80;;
22490;SDS011;11412;50.802;4.350;2023-07-24T13:57:26;4.00;;;3.58;;
22490;SDS011;11412;50.802;4.350;2023-07-24T13:59:52;2.75;;;2.55;;
22490;SDS011;11412;50.802;4.350;2023-07-24T14:02:17;3.72;;;2.92;;
22490;SDS011;11412;50.802;4.350;2023-07-24T14:04:43;3.58;;;2.70;;
22490;SDS011;11412;50.802;4.350;2023-07-24T14:07:09;3.95;;;2.70;;
22490;SDS011;11412;50.802;4.350;2023-07-24T14:09:35;4.70;;;2.70;;
22490;SDS011;11412;50.802;4.350;2023-07-24T14:12:01;3.80;;;3.00;;
22490;SDS011;11412;50.802;4.350;2023-07-24T14:14:26;3.22;;;3.03;;
22490;SDS011;11412;50.802;4.350;2023-07-24T14:16:52;3.00;;;2.80;;
22490;SDS011;11412;50.802;4.350;2023-07-24T14:19:18;4.20;;;2.78;;
22490;SDS011;11412;50.802;4.350;2023-07-24T14:21:44;2.72;;;2.47;;
22490;SDS011;11412;50.802;4.350;2023-07-24T14:24:10;2.78;;;2.35;;
22490;SDS011;11412;50.802;4.350;2023-07-24T14:26:35;3.33;;;2.63;;
22490;SDS011;11412;50.802;4.350;2023-07-24T14:29:02;3.22;;;2.80;;
22490;SDS011;11412;50.802;4.350;2023-07-24T14:31:28;6.93;;;2.92;;
22490;SDS011;11412;50.802;4.350;2023-07-24T14:33:54;2.70;;;2.55;;
22490;SDS011;11412;50.802;4.350;2023-07-24T14:36:20;2.88;;;2.67;;
22490;SDS011;11412;50.802;4.350;2023-07-24T14:38:46;2.60;;;2.38;;
22490;SDS011;11412;50.802;4.350;2023-07-24T14:41:12;4.85;;;2.95;;
22490;SDS011;11412;50.802;4.350;2023-07-24T14:43:39;2.88;;;2.63;;
22490;SDS011;11412;50.802;4.350;2023-07-24T14:46:06;3.60;;;2.30;;
22490;SDS011;11412;50.802;4.350;2023-07-24T14:48:31;3.50;;;2.90;;
22490;SDS011;11412;50.802;4.350;2023-07-24T14:50:57;2.63;;;2.00;;
22490;SDS011;11412;50.802;4.350;2023-07-24T14:53:23;2.33;;;2.20;;
22490;SDS011;11412;50.802;4.350;2023-07-24T14:55:48;2.38;;;2.20;;